sensor_id;sensor_type;location;lat;lon;timestamp;pressure;altitude;pressure_sealevel;temperature;humidity
76847;BME280;65813;49.546;8.644;2022-12-07T05:17:38;100706.75;;;2.97;86.47
76847;BME280;65813;49.546;8.644;2022-12-07T05:21:39;100705.72;;;3.01;87.32
76847;BME280;65813;49.546;8.644;2022-12-07T05:25:39;100714.63;;;2.97;87.03
76847;BME280;65813;49.546;8.644;2022-12-07T05:29:40;100715.63;;;2.95;87.46
76847;BME280;65813;49.546;8.644;2022-12-07T05:33:40;100710.25;;;2.98;87.36
76847;BME280;65813;49.546;8.644;2022-12-07T05:37:40;100703.38;;;2.94;87.83
76847;BME280;65813;49.546;8.644;2022-12-07T05:41:41;100712.47;;;2.85;88.89
76847;BME280;65813;49.546;8.644;2022-12-07T05:46:02;100707.34;;;2.82;89.37
76847;BME280;65813;49.546;8.644;2022-12-07T05:50:05;100706.50;;;2.80;89.04
76847;BME280;65813;49.546;8.644;2022-12-07T05:54:06;100708.50;;;2.74;88.81
76847;BME280;65813;49.546;8.644;2022-12-07T05:58:07;100712.13;;;2.71;89.18
76847;BME280;65813;49.546;8.644;2022-12-07T06:02:26;100711.13;;;2.74;89.09
76847;BME280;65813;49.546;8.644;2022-12-07T06:06:26;100712.22;;;2.68;89.50
76847;BME280;65813;49.546;8.644;2022-12-07T06:10:27;100708.66;;;2.69;88.89
76847;BME280;65813;49.546;8.644;2022-12-07T06:14:27;100699.13;;;2.67;87.87
76847;BME280;65813;49.546;8.644;2022-12-07T06:18:27;100709.38;;;2.74;87.71
76847;BME280;65813;49.546;8.644;2022-12-07T06:22:28;100712.88;;;2.75;87.30
76847;BME280;65813;49.546;8.644;2022-12-07T06:26:28;100708.59;;;2.72;87.39
76847;BME280;65813;49.546;8.644;2022-12-07T06:30:28;100707.75;;;2.70;87.60
76847;BME280;65813;49.546;8.644;2022-12-07T06:34:29;100702.34;;;2.75;87.61
76847;BME280;65813;49.546;8.644;2022-12-07T06:38:29;100702.91;;;2.83;87.73
76847;BME280;65813;49.546;8.644;2022-12-07T06:42:30;100716.25;;;2.78;87.66
76847;BME280;65813;49.546;8.644;2022-12-07T06:46:30;100709.97;;;2.82;87.85
76847;BME280;65813;49.546;8.644;2022-12-07T06:50:30;100708.34;;;2.78;87.63
76847;BME280;65813;49.546;8.644;2022-12-07T06:54:31;100709.88;;;2.84;87.79
76847;BME280;65813;49.546;8.644;2022-12-07T06:58:31;100708.16;;;2.83;87.86
76847;BME280;65813;49.546;8.644;2022-12-07T07:02:32;100706.41;;;2.83;88.71
76847;BME280;65813;49.546;8.644;2022-12-07T07:06:32;100719.13;;;2.95;87.57
76847;BME280;65813;49.546;8.644;2022-12-07T07:10:33;100717.47;;;2.93;87.28
76847;BME280;65813;49.546;8.644;2022-12-07T07:14:33;100714.63;;;2.97;87.40
76847;BME280;65813;49.546;8.644;2022-12-07T07:18:34;100727.91;;;2.94;87.45
76847;BME280;65813;49.546;8.644;2022-12-07T07:22:34;100722.38;;;3.02;87.50
76847;BME280;65813;49.546;8.644;2022-12-07T07:26:35;100726.72;;;3.03;87.65
76847;BME280;65813;49.546;8.644;2022-12-07T07:30:35;100735.91;;;3.15;87.01
76847;BME280;65813;49.546;8.644;2022-12-07T07:34:35;100734.44;;;3.08;86.91
76847;BME280;65813;49.546;8.644;2022-12-07T07:38:36;100725.03;;;3.00;86.80
76847;BME280;65813;49.546;8.644;2022-12-07T07:42:36;100726.19;;;2.93;87.67
76847;BME280;65813;49.546;8.644;2022-12-07T07:46:36;100729.69;;;2.94;86.86
76847;BME280;65813;49.546;8.644;2022-12-07T07:50:37;100737.19;;;3.04;87.09
76847;BME280;65813;49.546;8.644;2022-12-07T07:54:37;100738.38;;;2.96;86.92
76847;BME280;65813;49.546;8.644;2022-12-07T07:58:37;100731.25;;;2.99;86.54
76847;BME280;65813;49.546;8.644;2022-12-07T08:02:40;100740.69;;;3.05;87.07
76847;BME280;65813;49.546;8.644;2022-12-07T08:06:40;100740.72;;;3.03;86.44
76847;BME280;65813;49.546;8.644;2022-12-07T08:10:42;100739.56;;;3.11;86.23
76847;BME280;65813;49.546;8.644;2022-12-07T08:14:42;100740.28;;;3.16;86.81
76847;BME280;65813;49.546;8.644;2022-12-07T08:18:42;100743.25;;;3.07;86.41
76847;BME280;65813;49.546;8.644;2022-12-07T08:22:43;100746.34;;;3.18;86.29
76847;BME280;65813;49.546;8.644;2022-12-07T08:26:43;100748.28;;;3.13;86.72
76847;BME280;65813;49.546;8.644;2022-12-07T08:30:44;100743.03;;;3.13;86.28
76847;BME280;65813;49.546;8.644;2022-12-07T08:34:44;100741.88;;;3.20;86.37
76847;BME280;65813;49.546;8.644;2022-12-07T08:38:45;100749.06;;;3.15;86.17
76847;BME280;65813;49.546;8.644;2022-12-07T08:42:49;100750.56;;;3.22;86.31
76847;BME280;65813;49.546;8.644;2022-12-07T08:46:53;100747.06;;;3.21;86.91
76847;BME280;65813;49.546;8.644;2022-12-07T08:50:56;100746.28;;;3.19;86.63
76847;BME280;65813;49.546;8.644;2022-12-07T08:54:57;100746.13;;;3.24;86.25
76847;BME280;65813;49.546;8.644;2022-12-07T08:58:58;100750.31;;;3.28;85.99
76847;BME280;65813;49.546;8.644;2022-12-07T09:02:59;100750.31;;;3.28;86.07
76847;BME280;65813;49.546;8.644;2022-12-07T09:07:00;100744.28;;;3.26;85.85
76847;BME280;65813;49.546;8.644;2022-12-07T09:11:00;100737.91;;;3.31;85.91
76847;BME280;65813;49.546;8.644;2022-12-07T09:15:00;100758.94;;;3.33;85.33
76847;BME280;65813;49.546;8.644;2022-12-07T09:19:01;100748.78;;;3.45;84.71
76847;BME280;65813;49.546;8.644;2022-12-07T09:23:01;100751.72;;;3.38;84.93
76847;BME280;65813;49.546;8.644;2022-12-07T09:27:02;100751.38;;;3.47;85.97
76847;BME280;65813;49.546;8.644;2022-12-07T09:31:03;100759.31;;;3.45;84.15
76847;BME280;65813;49.546;8.644;2022-12-07T09:35:03;100760.34;;;3.41;84.95
76847;BME280;65813;49.546;8.644;2022-12-07T09:39:04;100763.72;;;3.45;84.65
76847;BME280;65813;49.546;8.644;2022-12-07T09:43:17;100755.72;;;3.48;85.05
76847;BME280;65813;49.546;8.644;2022-12-07T09:47:18;100749.94;;;3.38;85.69
76847;BME280;65813;49.546;8.644;2022-12-07T09:51:23;100757.53;;;3.46;85.60
76847;BME280;65813;49.546;8.644;2022-12-07T09:55:27;100754.75;;;3.50;85.63
76847;BME280;65813;49.546;8.644;2022-12-07T09:59:28;100750.22;;;3.54;85.67
76847;BME280;65813;49.546;8.644;2022-12-07T10:03:29;100741.03;;;3.64;84.75
76847;BME280;65813;49.546;8.644;2022-12-07T10:07:29;100730.78;;;3.56;85.32
76847;BME280;65813;49.546;8.644;2022-12-07T10:11:30;100729.69;;;3.62;84.89
76847;BME280;65813;49.546;8.644;2022-12-07T10:15:49;100730.41;;;3.66;85.03
76847;BME280;65813;49.546;8.644;2022-12-07T10:19:50;100719.16;;;3.62;85.01
76847;BME280;65813;49.546;8.644;2022-12-07T10:24:13;100725.88;;;3.69;85.19
76847;BME280;65813;49.546;8.644;2022-12-07T10:28:18;100720.88;;;3.63;85.24
76847;BME280;65813;49.546;8.644;2022-12-07T10:40:32;100718.81;;;3.71;85.34
76847;BME280;65813;49.546;8.644;2022-12-07T10:44:34;100721.34;;;3.73;85.16
76847;BME280;65813;49.546;8.644;2022-12-07T10:49:24;100714.31;;;3.73;85.18
76847;BME280;65813;49.546;8.644;2022-12-07T11:02:20;100709.34;;;3.87;84.93
76847;BME280;65813;49.546;8.644;2022-12-07T11:10:55;100704.81;;;3.91;85.03
76847;BME280;65813;49.546;8.644;2022-12-07T11:15:24;100697.16;;;3.85;85.30
76847;BME280;65813;49.546;8.644;2022-12-07T11:28:20;100684.59;;;3.91;85.05
76847;BME280;65813;49.546;8.644;2022-12-07T11:32:42;100680.00;;;3.96;84.56
76847;BME280;65813;49.546;8.644;2022-12-07T11:36:47;100666.47;;;3.84;85.16
76847;BME280;65813;49.546;8.644;2022-12-07T11:40:53;100659.97;;;3.92;85.02
76847;BME280;65813;49.546;8.644;2022-12-07T11:45:37;100659.25;;;3.89;85.15
76847;BME280;65813;49.546;8.644;2022-12-07T11:49:53;100650.06;;;3.97;85.00
76847;BME280;65813;49.546;8.644;2022-12-07T11:54:16;100639.19;;;4.45;84.58
76847;BME280;65813;49.546;8.644;2022-12-07T12:02:53;100630.28;;;5.05;85.12
76847;BME280;65813;49.546;8.644;2022-12-07T12:06:58;100633.13;;;5.20;82.42
76847;BME280;65813;49.546;8.644;2022-12-07T12:11:08;100635.13;;;4.77;82.74
76847;BME280;65813;49.546;8.644;2022-12-07T12:19:36;100638.13;;;4.49;83.21
76847;BME280;65813;49.546;8.644;2022-12-07T12:23:57;100629.66;;;4.43;83.45
76847;BME280;65813;49.546;8.644;2022-12-07T12:28:00;100621.59;;;4.46;83.34
76847;BME280;65813;49.546;8.644;2022-12-07T12:48:35;100611.13;;;4.63;82.93
76847;BME280;65813;49.546;8.644;2022-12-07T12:52:50;100597.94;;;4.63;82.89
76847;BME280;65813;49.546;8.644;2022-12-07T12:57:13;100606.88;;;4.61;83.24
76847;BME280;65813;49.546;8.644;2022-12-07T13:05:35;100589.97;;;4.65;82.64
76847;BME280;65813;49.546;8.644;2022-12-07T13:09:35;100583.75;;;4.66;82.51
76847;BME280;65813;49.546;8.644;2022-12-07T13:13:36;100578.56;;;4.64;83.47
76847;BME280;65813;49.546;8.644;2022-12-07T13:25:44;100570.44;;;4.69;82.92
76847;BME280;65813;49.546;8.644;2022-12-07T13:29:46;100574.22;;;4.63;81.92
76847;BME280;65813;49.546;8.644;2022-12-07T13:33:47;100581.25;;;4.63;82.58
76847;BME280;65813;49.546;8.644;2022-12-07T13:37:48;100559.81;;;4.51;83.43
76847;BME280;65813;49.546;8.644;2022-12-07T13:41:51;100563.59;;;4.65;82.93
76847;BME280;65813;49.546;8.644;2022-12-07T13:45:58;100556.41;;;4.68;83.27
76847;BME280;65813;49.546;8.644;2022-12-07T13:50:00;100551.44;;;4.79;82.64
76847;BME280;65813;49.546;8.644;2022-12-07T13:54:10;100536.41;;;4.81;82.16
76847;BME280;65813;49.546;8.644;2022-12-07T13:58:11;100552.31;;;4.98;80.48
76847;BME280;65813;49.546;8.644;2022-12-07T14:02:25;100549.97;;;4.92;78.62
76847;BME280;65813;49.546;8.644;2022-12-07T14:06:26;100548.59;;;4.84;78.97
76847;BME280;65813;49.546;8.644;2022-12-07T14:10:52;100552.31;;;4.80;78.31
76847;BME280;65813;49.546;8.644;2022-12-07T14:14:53;100555.03;;;4.78;78.09
76847;BME280;65813;49.546;8.644;2022-12-07T14:19:00;100555.91;;;4.79;78.43
76847;BME280;65813;49.546;8.644;2022-12-07T14:23:01;100556.09;;;4.74;78.06
76847;BME280;65813;49.546;8.644;2022-12-07T14:27:22;100556.09;;;4.74;78.89
76847;BME280;65813;49.546;8.644;2022-12-07T14:31:25;100551.03;;;4.70;77.48
76847;BME280;65813;49.546;8.644;2022-12-07T14:35:26;100555.91;;;4.79;76.66
76847;BME280;65813;49.546;8.644;2022-12-07T14:39:27;100564.53;;;4.82;76.62
76847;BME280;65813;49.546;8.644;2022-12-07T14:43:27;100558.75;;;4.74;77.28
76847;BME280;65813;49.546;8.644;2022-12-07T14:47:27;100547.63;;;4.68;77.79
76847;BME280;65813;49.546;8.644;2022-12-07T14:51:28;100552.69;;;4.72;77.04
76847;BME280;65813;49.546;8.644;2022-12-07T14:55:30;100552.97;;;4.66;77.77
76847;BME280;65813;49.546;8.644;2022-12-07T14:59:31;100549.25;;;4.70;76.85
76847;BME280;65813;49.546;8.644;2022-12-07T15:03:31;100535.16;;;4.71;76.20
76847;BME280;65813;49.546;8.644;2022-12-07T15:07:32;100544.28;;;4.64;78.09
76847;BME280;65813;49.546;8.644;2022-12-07T15:11:32;100541.69;;;4.63;78.62
76847;BME280;65813;49.546;8.644;2022-12-07T15:15:32;100536.97;;;4.69;76.95
76847;BME280;65813;49.546;8.644;2022-12-07T15:19:33;100535.75;;;4.76;76.69
76847;BME280;65813;49.546;8.644;2022-12-07T15:23:34;100533.44;;;4.70;77.44
76847;BME280;65813;49.546;8.644;2022-12-07T15:27:34;100536.31;;;4.83;76.24
76847;BME280;65813;49.546;8.644;2022-12-07T15:31:35;100529.56;;;4.77;75.58
76847;BME280;65813;49.546;8.644;2022-12-07T15:35:43;100526.16;;;4.75;75.87
76847;BME280;65813;49.546;8.644;2022-12-07T15:39:44;100531.28;;;4.78;76.89
76847;BME280;65813;49.546;8.644;2022-12-07T15:43:44;100526.31;;;4.72;76.95
76847;BME280;65813;49.546;8.644;2022-12-07T15:48:04;100516.88;;;4.67;77.10
76847;BME280;65813;49.546;8.644;2022-12-07T15:52:04;100514.59;;;4.78;77.20
76847;BME280;65813;49.546;8.644;2022-12-07T15:56:08;100520.38;;;4.67;77.51
76847;BME280;65813;49.546;8.644;2022-12-07T16:00:10;100513.38;;;4.66;77.40
76847;BME280;65813;49.546;8.644;2022-12-07T16:04:10;100505.19;;;4.53;77.75
76847;BME280;65813;49.546;8.644;2022-12-07T16:08:11;100502.13;;;4.63;77.54
76847;BME280;65813;49.546;8.644;2022-12-07T16:12:12;100505.16;;;4.55;78.15
76847;BME280;65813;49.546;8.644;2022-12-07T16:16:15;100501.25;;;4.62;78.85
76847;BME280;65813;49.546;8.644;2022-12-07T16:20:16;100498.88;;;4.57;78.01
76847;BME280;65813;49.546;8.644;2022-12-07T16:24:16;100492.88;;;4.54;78.34
76847;BME280;65813;49.546;8.644;2022-12-07T16:28:17;100489.22;;;4.56;78.17
76847;BME280;65813;49.546;8.644;2022-12-07T16:32:17;100498.50;;;4.65;78.11
76847;BME280;65813;49.546;8.644;2022-12-07T16:36:18;100510.28;;;4.58;77.88
76847;BME280;65813;49.546;8.644;2022-12-07T16:40:18;100499.38;;;4.47;78.13
76847;BME280;65813;49.546;8.644;2022-12-07T16:44:19;100495.91;;;4.45;77.89
76847;BME280;65813;49.546;8.644;2022-12-07T16:48:19;100496.44;;;4.34;78.73
76847;BME280;65813;49.546;8.644;2022-12-07T16:52:20;100488.25;;;4.40;78.45
76847;BME280;65813;49.546;8.644;2022-12-07T16:56:21;100491.66;;;4.42;79.28
76847;BME280;65813;49.546;8.644;2022-12-07T17:00:22;100487.53;;;4.37;79.05
76847;BME280;65813;49.546;8.644;2022-12-07T17:04:22;100496.22;;;4.39;79.08
76847;BME280;65813;49.546;8.644;2022-12-07T17:08:22;100489.31;;;4.36;79.73
76847;BME280;65813;49.546;8.644;2022-12-07T17:12:23;100486.97;;;4.30;79.53
76847;BME280;65813;49.546;8.644;2022-12-07T17:16:23;100483.63;;;4.27;79.20
76847;BME280;65813;49.546;8.644;2022-12-07T17:20:26;100490.38;;;4.32;79.16
76847;BME280;65813;49.546;8.644;2022-12-07T17:24:26;100487.88;;;4.29;79.53
76847;BME280;65813;49.546;8.644;2022-12-07T17:28:26;100493.28;;;4.26;79.41
76847;BME280;65813;49.546;8.644;2022-12-07T17:32:27;100488.66;;;4.31;79.60
76847;BME280;65813;49.546;8.644;2022-12-07T17:36:29;100492.28;;;4.29;79.09
76847;BME280;65813;49.546;8.644;2022-12-07T17:40:30;100480.81;;;4.30;79.08
76847;BME280;65813;49.546;8.644;2022-12-07T17:44:30;100476.28;;;4.33;78.50
76847;BME280;65813;49.546;8.644;2022-12-07T17:48:30;100483.09;;;4.19;79.42
76847;BME280;65813;49.546;8.644;2022-12-07T17:52:31;100473.69;;;4.13;79.21
76847;BME280;65813;49.546;8.644;2022-12-07T17:56:50;100477.53;;;4.25;79.80
76847;BME280;65813;49.546;8.644;2022-12-07T18:00:51;100479.09;;;4.29;79.38
76847;BME280;65813;49.546;8.644;2022-12-07T18:04:51;100474.63;;;4.31;79.17
76847;BME280;65813;49.546;8.644;2022-12-07T18:08:52;100477.63;;;4.23;78.42
76847;BME280;65813;49.546;8.644;2022-12-07T18:12:53;100472.69;;;4.16;78.66
76847;BME280;65813;49.546;8.644;2022-12-07T18:17:13;100471.84;;;4.34;77.92
76847;BME280;65813;49.546;8.644;2022-12-07T18:21:16;100474.75;;;4.28;77.92
76847;BME280;65813;49.546;8.644;2022-12-07T18:25:17;100470.69;;;4.21;77.82
76847;BME280;65813;49.546;8.644;2022-12-07T18:29:18;100468.56;;;4.10;78.02
76847;BME280;65813;49.546;8.644;2022-12-07T18:33:19;100472.03;;;4.11;78.45
76847;BME280;65813;49.546;8.644;2022-12-07T18:37:20;100465.31;;;4.03;79.02
76847;BME280;65813;49.546;8.644;2022-12-07T18:41:23;100457.56;;;4.00;79.43
76847;BME280;65813;49.546;8.644;2022-12-07T18:45:23;100467.47;;;3.95;80.37
76847;BME280;65813;49.546;8.644;2022-12-07T18:49:23;100463.97;;;3.95;80.53
76847;BME280;65813;49.546;8.644;2022-12-07T18:53:24;100465.63;;;3.97;81.23
76847;BME280;65813;49.546;8.644;2022-12-07T18:57:24;100468.38;;;3.94;81.07
76847;BME280;65813;49.546;8.644;2022-12-07T19:01:25;100474.94;;;3.86;81.40
76847;BME280;65813;49.546;8.644;2022-12-07T19:05:26;100453.72;;;3.89;81.60
76847;BME280;65813;49.546;8.644;2022-12-07T19:09:27;100458.28;;;3.85;81.38
76847;BME280;65813;49.546;8.644;2022-12-07T19:13:28;100451.28;;;3.84;81.59
76847;BME280;65813;49.546;8.644;2022-12-07T19:17:28;100455.06;;;3.79;81.78
76847;BME280;65813;49.546;8.644;2022-12-07T19:21:28;100447.50;;;3.71;81.56
76847;BME280;65813;49.546;8.644;2022-12-07T19:25:29;100444.00;;;3.71;82.10
76847;BME280;65813;49.546;8.644;2022-12-07T19:29:29;100449.13;;;3.74;82.46
76847;BME280;65813;49.546;8.644;2022-12-07T19:33:38;100451.97;;;3.69;82.08
76847;BME280;65813;49.546;8.644;2022-12-07T19:37:39;100444.72;;;3.74;81.82
76847;BME280;65813;49.546;8.644;2022-12-07T19:41:40;100441.41;;;3.69;81.90
76847;BME280;65813;49.546;8.644;2022-12-07T19:45:42;100436.28;;;3.66;81.86
76847;BME280;65813;49.546;8.644;2022-12-07T19:49:44;100441.31;;;3.72;81.44
76847;BME280;65813;49.546;8.644;2022-12-07T19:53:44;100445.63;;;3.73;81.42
76847;BME280;65813;49.546;8.644;2022-12-07T19:57:45;100444.91;;;3.70;81.54
76847;BME280;65813;49.546;8.644;2022-12-07T20:01:45;100437.09;;;3.68;81.70
76847;BME280;65813;49.546;8.644;2022-12-07T20:05:46;100438.28;;;3.61;81.83
76847;BME280;65813;49.546;8.644;2022-12-07T20:09:46;100428.81;;;3.57;81.33
76847;BME280;65813;49.546;8.644;2022-12-07T20:13:46;100423.59;;;3.55;81.86
76847;BME280;65813;49.546;8.644;2022-12-07T20:17:47;100425.66;;;3.49;82.14
76847;BME280;65813;49.546;8.644;2022-12-07T20:21:48;100429.13;;;3.49;82.38
76847;BME280;65813;49.546;8.644;2022-12-07T20:25:48;100421.44;;;3.45;82.17
76847;BME280;65813;49.546;8.644;2022-12-07T20:29:49;100423.69;;;3.34;82.54
76847;BME280;65813;49.546;8.644;2022-12-07T20:33:49;100421.94;;;3.34;82.54
76847;BME280;65813;49.546;8.644;2022-12-07T20:37:50;100420.97;;;3.35;82.39
76847;BME280;65813;49.546;8.644;2022-12-07T20:41:51;100434.72;;;3.42;81.97
76847;BME280;65813;49.546;8.644;2022-12-07T20:46:11;100424.16;;;3.43;82.38
76847;BME280;65813;49.546;8.644;2022-12-07T20:50:11;100422.44;;;3.42;82.11
76847;BME280;65813;49.546;8.644;2022-12-07T20:54:12;100432.09;;;3.42;82.14
76847;BME280;65813;49.546;8.644;2022-12-07T20:58:12;100420.97;;;3.35;82.21
76847;BME280;65813;49.546;8.644;2022-12-07T21:02:13;100418.94;;;3.22;82.61
76847;BME280;65813;49.546;8.644;2022-12-07T21:06:15;100421.97;;;3.33;82.55
76847;BME280;65813;49.546;8.644;2022-12-07T21:10:16;100403.09;;;3.23;82.33
76847;BME280;65813;49.546;8.644;2022-12-07T21:14:16;100396.16;;;3.21;82.05
76847;BME280;65813;49.546;8.644;2022-12-07T21:18:17;100396.56;;;3.32;82.22
76847;BME280;65813;49.546;8.644;2022-12-07T21:22:17;100393.31;;;3.27;82.00
76847;BME280;65813;49.546;8.644;2022-12-07T21:26:19;100387.44;;;3.20;82.06
76847;BME280;65813;49.546;8.644;2022-12-07T21:30:20;100388.28;;;3.21;82.04
76847;BME280;65813;49.546;8.644;2022-12-07T21:34:20;100387.59;;;3.17;82.05
76847;BME280;65813;49.546;8.644;2022-12-07T21:38:21;100386.50;;;3.21;81.63
76847;BME280;65813;49.546;8.644;2022-12-07T21:42:21;100384.22;;;3.14;81.71
76847;BME280;65813;49.546;8.644;2022-12-07T21:46:23;100383.41;;;3.12;82.05
76847;BME280;65813;49.546;8.644;2022-12-07T21:50:23;100376.66;;;3.06;82.36
76847;BME280;65813;49.546;8.644;2022-12-07T21:54:24;100373.94;;;3.08;82.68
76847;BME280;65813;49.546;8.644;2022-12-07T21:58:24;100373.16;;;3.05;82.90
76847;BME280;65813;49.546;8.644;2022-12-07T22:02:24;100361.06;;;3.01;82.77
76847;BME280;65813;49.546;8.644;2022-12-07T22:06:25;100363.63;;;3.03;82.79
76847;BME280;65813;49.546;8.644;2022-12-07T22:10:25;100365.41;;;3.02;82.55
76847;BME280;65813;49.546;8.644;2022-12-07T22:14:29;100372.25;;;3.07;82.70
